sensor_id;sensor_type;location;lat;lon;timestamp;temperature;humidity
38910;DHT22;24676;51.360;12.354;2022-10-17T04:03:16;15.40;99.90
38910;DHT22;24676;51.360;12.354;2022-10-17T04:06:01;15.40;99.90
38910;DHT22;24676;51.360;12.354;2022-10-17T04:08:46;15.30;99.90
38910;DHT22;24676;51.360;12.354;2022-10-17T04:11:31;15.30;99.90
38910;DHT22;24676;51.360;12.354;2022-10-17T04:14:15;15.30;99.90
38910;DHT22;24676;51.360;12.354;2022-10-17T04:16:59;15.30;99.90
38910;DHT22;24676;51.360;12.354;2022-10-17T04:19:43;15.30;99.90
38910;DHT22;24676;51.360;12.354;2022-10-17T04:22:27;15.30;99.90
38910;DHT22;24676;51.360;12.354;2022-10-17T04:25:11;15.30;99.90
38910;DHT22;24676;51.360;12.354;2022-10-17T04:27:55;15.30;99.90
38910;DHT22;24676;51.360;12.354;2022-10-17T04:30:39;15.20;99.90
38910;DHT22;24676;51.360;12.354;2022-10-17T04:33:24;15.20;99.90
38910;DHT22;24676;51.360;12.354;2022-10-17T04:36:14;15.10;99.90
38910;DHT22;24676;51.360;12.354;2022-10-17T04:38:59;15.10;99.90
38910;DHT22;24676;51.360;12.354;2022-10-17T04:41:48;15.10;99.90
38910;DHT22;24676;51.360;12.354;2022-10-17T04:44:32;15.10;99.90
38910;DHT22;24676;51.360;12.354;2022-10-17T04:47:18;15.10;99.90
38910;DHT22;24676;51.360;12.354;2022-10-17T04:50:02;15.10;99.90
38910;DHT22;24676;51.360;12.354;2022-10-17T04:52:47;15.00;99.90
38910;DHT22;24676;51.360;12.354;2022-10-17T04:55:31;15.00;99.90
38910;DHT22;24676;51.360;12.354;2022-10-17T04:58:19;15.10;99.90
38910;DHT22;24676;51.360;12.354;2022-10-17T05:01:05;15.10;99.90
38910;DHT22;24676;51.360;12.354;2022-10-17T05:03:49;15.10;99.90
38910;DHT22;24676;51.360;12.354;2022-10-17T05:06:34;15.10;99.90
38910;DHT22;24676;51.360;12.354;2022-10-17T05:09:17;15.00;99.90
38910;DHT22;24676;51.360;12.354;2022-10-17T05:12:01;15.00;99.90
38910;DHT22;24676;51.360;12.354;2022-10-17T05:14:45;14.90;99.90
38910;DHT22;24676;51.360;12.354;2022-10-17T05:17:30;14.90;99.90
38910;DHT22;24676;51.360;12.354;2022-10-17T05:20:14;14.80;99.90
38910;DHT22;24676;51.360;12.354;2022-10-17T05:22:59;14.80;99.90
38910;DHT22;24676;51.360;12.354;2022-10-17T05:25:43;14.70;99.90
38910;DHT22;24676;51.360;12.354;2022-10-17T05:28:28;14.70;99.90
38910;DHT22;24676;51.360;12.354;2022-10-17T05:31:12;14.70;99.90
38910;DHT22;24676;51.360;12.354;2022-10-17T05:34:03;14.60;99.90
38910;DHT22;24676;51.360;12.354;2022-10-17T05:36:47;14.60;99.90
38910;DHT22;24676;51.360;12.354;2022-10-17T05:39:31;14.60;99.90
38910;DHT22;24676;51.360;12.354;2022-10-17T05:42:15;14.60;99.90
38910;DHT22;24676;51.360;12.354;2022-10-17T05:45:00;14.60;99.90
38910;DHT22;24676;51.360;12.354;2022-10-17T05:47:45;14.70;99.90
38910;DHT22;24676;51.360;12.354;2022-10-17T05:50:28;14.70;99.90
38910;DHT22;24676;51.360;12.354;2022-10-17T05:53:13;14.80;99.90
38910;DHT22;24676;51.360;12.354;2022-10-17T05:55:58;14.80;99.90
38910;DHT22;24676;51.360;12.354;2022-10-17T05:58:42;14.80;99.90
38910;DHT22;24676;51.360;12.354;2022-10-17T06:01:28;14.80;99.90
38910;DHT22;24676;51.360;12.354;2022-10-17T06:04:12;14.90;99.90
38910;DHT22;24676;51.360;12.354;2022-10-17T06:06:56;15.00;99.90
38910;DHT22;24676;51.360;12.354;2022-10-17T06:09:40;15.00;99.90
38910;DHT22;24676;51.360;12.354;2022-10-17T06:12:25;15.20;99.90
38910;DHT22;24676;51.360;12.354;2022-10-17T06:15:10;15.20;99.90
38910;DHT22;24676;51.360;12.354;2022-10-17T06:17:55;15.30;99.90
38910;DHT22;24676;51.360;12.354;2022-10-17T06:20:39;15.40;99.90
38910;DHT22;24676;51.360;12.354;2022-10-17T06:23:23;15.50;99.90
38910;DHT22;24676;51.360;12.354;2022-10-17T06:26:08;15.60;99.90
38910;DHT22;24676;51.360;12.354;2022-10-17T06:28:54;15.80;99.90
38910;DHT22;24676;51.360;12.354;2022-10-17T06:31:38;15.90;99.90
38910;DHT22;24676;51.360;12.354;2022-10-17T06:34:22;16.10;99.90
38910;DHT22;24676;51.360;12.354;2022-10-17T06:37:06;16.30;99.90
38910;DHT22;24676;51.360;12.354;2022-10-17T06:39:50;16.40;99.90
38910;DHT22;24676;51.360;12.354;2022-10-17T06:42:34;16.60;99.90
38910;DHT22;24676;51.360;12.354;2022-10-17T06:45:18;16.80;99.90
38910;DHT22;24676;51.360;12.354;2022-10-17T06:48:03;16.90;99.90
38910;DHT22;24676;51.360;12.354;2022-10-17T06:50:47;17.00;99.90
38910;DHT22;24676;51.360;12.354;2022-10-17T06:53:33;17.10;99.90
38910;DHT22;24676;51.360;12.354;2022-10-17T06:56:17;17.20;99.90
38910;DHT22;24676;51.360;12.354;2022-10-17T06:59:02;17.30;99.90
38910;DHT22;24676;51.360;12.354;2022-10-17T07:01:46;17.30;99.90
38910;DHT22;24676;51.360;12.354;2022-10-17T07:04:30;17.40;99.90
38910;DHT22;24676;51.360;12.354;2022-10-17T07:07:14;17.60;99.90
38910;DHT22;24676;51.360;12.354;2022-10-17T07:09:58;17.90;99.90
38910;DHT22;24676;51.360;12.354;2022-10-17T07:12:42;19.80;99.90
38910;DHT22;24676;51.360;12.354;2022-10-17T07:15:28;22.40;99.90
38910;DHT22;24676;51.360;12.354;2022-10-17T07:18:13;24.80;85.70
38910;DHT22;24676;51.360;12.354;2022-10-17T07:20:57;26.80;66.40
38910;DHT22;24676;51.360;12.354;2022-10-17T07:23:41;28.30;58.80
38910;DHT22;24676;51.360;12.354;2022-10-17T07:26:26;29.70;53.70
38910;DHT22;24676;51.360;12.354;2022-10-17T07:29:10;30.60;49.20
38910;DHT22;24676;51.360;12.354;2022-10-17T07:31:54;31.20;47.50
38910;DHT22;24676;51.360;12.354;2022-10-17T07:34:38;31.20;45.80
38910;DHT22;24676;51.360;12.354;2022-10-17T07:37:22;30.60;46.20
38910;DHT22;24676;51.360;12.354;2022-10-17T07:40:07;29.60;47.60
38910;DHT22;24676;51.360;12.354;2022-10-17T07:42:51;28.00;50.50
38910;DHT22;24676;51.360;12.354;2022-10-17T07:45:35;27.10;53.00
38910;DHT22;24676;51.360;12.354;2022-10-17T07:48:20;27.40;53.20
38910;DHT22;24676;51.360;12.354;2022-10-17T07:51:05;27.30;52.70
38910;DHT22;24676;51.360;12.354;2022-10-17T07:53:50;26.30;54.40
38910;DHT22;24676;51.360;12.354;2022-10-17T07:56:34;25.10;57.00
38910;DHT22;24676;51.360;12.354;2022-10-17T07:59:19;24.00;60.20
38910;DHT22;24676;51.360;12.354;2022-10-17T08:02:03;23.10;64.80
38910;DHT22;24676;51.360;12.354;2022-10-17T08:04:48;22.40;69.90
38910;DHT22;24676;51.360;12.354;2022-10-17T08:07:32;21.90;76.10
38910;DHT22;24676;51.360;12.354;2022-10-17T08:10:16;21.60;81.10
38910;DHT22;24676;51.360;12.354;2022-10-17T08:13:01;21.30;89.30
38910;DHT22;24676;51.360;12.354;2022-10-17T08:15:45;21.10;92.80
38910;DHT22;24676;51.360;12.354;2022-10-17T08:18:31;20.90;95.80
38910;DHT22;24676;51.360;12.354;2022-10-17T08:21:15;20.80;98.40
38910;DHT22;24676;51.360;12.354;2022-10-17T08:23:59;20.80;98.20
38910;DHT22;24676;51.360;12.354;2022-10-17T08:26:45;20.90;99.20
38910;DHT22;24676;51.360;12.354;2022-10-17T08:29:29;21.20;98.70
38910;DHT22;24676;51.360;12.354;2022-10-17T08:32:15;21.60;96.70
38910;DHT22;24676;51.360;12.354;2022-10-17T08:35:00;22.00;93.10
38910;DHT22;24676;51.360;12.354;2022-10-17T08:37:45;22.40;92.10
38910;DHT22;24676;51.360;12.354;2022-10-17T08:40:30;22.90;90.70
38910;DHT22;24676;51.360;12.354;2022-10-17T08:46:01;22.90;85.10
38910;DHT22;24676;51.360;12.354;2022-10-17T08:48:46;22.80;84.10
38910;DHT22;24676;51.360;12.354;2022-10-17T08:51:31;22.90;83.40
38910;DHT22;24676;51.360;12.354;2022-10-17T08:54:25;23.00;82.20
38910;DHT22;24676;51.360;12.354;2022-10-17T08:57:13;23.00;82.60
38910;DHT22;24676;51.360;12.354;2022-10-17T08:59:58;23.00;81.90
38910;DHT22;24676;51.360;12.354;2022-10-17T09:05:32;23.30;78.50
38910;DHT22;24676;51.360;12.354;2022-10-17T09:15:19;23.20;78.80
38910;DHT22;24676;51.360;12.354;2022-10-17T09:18:14;23.30;79.30
38910;DHT22;24676;51.360;12.354;2022-10-17T09:20:39;23.90;76.50
38910;DHT22;24676;51.360;12.354;2022-10-17T09:23:32;24.40;72.30
38910;DHT22;24676;51.360;12.354;2022-10-17T09:26:22;24.40;72.10
38910;DHT22;24676;51.360;12.354;2022-10-17T09:29:18;24.40;72.10
38910;DHT22;24676;51.360;12.354;2022-10-17T09:32:14;24.80;71.10
38910;DHT22;24676;51.360;12.354;2022-10-17T09:34:59;25.80;67.50
38910;DHT22;24676;51.360;12.354;2022-10-17T09:37:44;26.70;64.10
38910;DHT22;24676;51.360;12.354;2022-10-17T09:40:32;27.10;61.70
38910;DHT22;24676;51.360;12.354;2022-10-17T09:43:17;27.40;58.90
38910;DHT22;24676;51.360;12.354;2022-10-17T09:46:07;28.20;56.00
38910;DHT22;24676;51.360;12.354;2022-10-17T09:48:57;28.80;53.90
38910;DHT22;24676;51.360;12.354;2022-10-17T09:51:43;29.50;52.30
38910;DHT22;24676;51.360;12.354;2022-10-17T09:54:51;29.30;50.60
38910;DHT22;24676;51.360;12.354;2022-10-17T10:00:37;28.00;53.40
38910;DHT22;24676;51.360;12.354;2022-10-17T10:03:24;27.70;54.00
38910;DHT22;24676;51.360;12.354;2022-10-17T10:06:19;27.40;54.60
38910;DHT22;24676;51.360;12.354;2022-10-17T10:09:04;27.30;56.00
38910;DHT22;24676;51.360;12.354;2022-10-17T10:11:58;27.20;56.00
38910;DHT22;24676;51.360;12.354;2022-10-17T10:14:43;27.30;55.50
38910;DHT22;24676;51.360;12.354;2022-10-17T10:17:36;27.40;55.60
38910;DHT22;24676;51.360;12.354;2022-10-17T10:20:39;27.70;55.00
38910;DHT22;24676;51.360;12.354;2022-10-17T10:23:24;27.90;54.10
38910;DHT22;24676;51.360;12.354;2022-10-17T10:26:24;28.30;54.00
38910;DHT22;24676;51.360;12.354;2022-10-17T10:29:22;28.70;51.50
38910;DHT22;24676;51.360;12.354;2022-10-17T10:32:17;29.00;51.80
38910;DHT22;24676;51.360;12.354;2022-10-17T10:35:06;28.90;51.40
38910;DHT22;24676;51.360;12.354;2022-10-17T10:37:51;28.50;51.00
38910;DHT22;24676;51.360;12.354;2022-10-17T10:40:47;28.10;51.90
38910;DHT22;24676;51.360;12.354;2022-10-17T10:43:34;28.10;52.30
38910;DHT22;24676;51.360;12.354;2022-10-17T10:46:23;27.90;52.20
38910;DHT22;24676;51.360;12.354;2022-10-17T10:49:28;27.70;53.30
38910;DHT22;24676;51.360;12.354;2022-10-17T10:52:34;27.60;52.90
38910;DHT22;24676;51.360;12.354;2022-10-17T10:55:38;27.40;53.60
38910;DHT22;24676;51.360;12.354;2022-10-17T10:58:48;27.20;53.70
38910;DHT22;24676;51.360;12.354;2022-10-17T11:01:47;26.90;54.50
38910;DHT22;24676;51.360;12.354;2022-10-17T11:07:52;27.30;53.50
38910;DHT22;24676;51.360;12.354;2022-10-17T11:17:16;29.10;51.00
38910;DHT22;24676;51.360;12.354;2022-10-17T11:25:53;28.90;50.00
38910;DHT22;24676;51.360;12.354;2022-10-17T11:28:39;28.40;50.20
38910;DHT22;24676;51.360;12.354;2022-10-17T11:31:29;28.00;51.70
38910;DHT22;24676;51.360;12.354;2022-10-17T11:34:25;28.00;52.20
38910;DHT22;24676;51.360;12.354;2022-10-17T11:37:15;28.10;51.80
38910;DHT22;24676;51.360;12.354;2022-10-17T11:43:33;28.90;49.90
38910;DHT22;24676;51.360;12.354;2022-10-17T11:46:21;29.40;49.90
38910;DHT22;24676;51.360;12.354;2022-10-17T11:49:14;29.60;49.10
38910;DHT22;24676;51.360;12.354;2022-10-17T11:52:36;29.50;48.40
38910;DHT22;24676;51.360;12.354;2022-10-17T11:55:24;29.30;48.90
38910;DHT22;24676;51.360;12.354;2022-10-17T12:01:45;29.00;49.50
38910;DHT22;24676;51.360;12.354;2022-10-17T12:10:42;28.10;51.00
38910;DHT22;24676;51.360;12.354;2022-10-17T12:19:20;27.40;52.50
38910;DHT22;24676;51.360;12.354;2022-10-17T12:22:18;27.20;53.10
38910;DHT22;24676;51.360;12.354;2022-10-17T12:25:03;27.20;53.80
38910;DHT22;24676;51.360;12.354;2022-10-17T12:27:48;27.10;53.70
38910;DHT22;24676;51.360;12.354;2022-10-17T12:30:35;27.00;53.80
38910;DHT22;24676;51.360;12.354;2022-10-17T12:33:21;26.90;54.60
38910;DHT22;24676;51.360;12.354;2022-10-17T12:41:54;26.80;54.90
38910;DHT22;24676;51.360;12.354;2022-10-17T12:44:38;26.90;55.20
38910;DHT22;24676;51.360;12.354;2022-10-17T12:47:27;27.00;54.20
38910;DHT22;24676;51.360;12.354;2022-10-17T12:53:15;27.20;54.30
38910;DHT22;24676;51.360;12.354;2022-10-17T12:55:59;27.20;54.10
38910;DHT22;24676;51.360;12.354;2022-10-17T12:58:47;27.20;54.30
38910;DHT22;24676;51.360;12.354;2022-10-17T13:01:33;27.10;54.60
38910;DHT22;24676;51.360;12.354;2022-10-17T13:04:18;27.10;54.60
38910;DHT22;24676;51.360;12.354;2022-10-17T13:07:02;27.00;54.80
38910;DHT22;24676;51.360;12.354;2022-10-17T13:09:46;27.10;54.80
38910;DHT22;24676;51.360;12.354;2022-10-17T13:12:32;27.00;55.00
38910;DHT22;24676;51.360;12.354;2022-10-17T13:15:17;26.90;54.80
38910;DHT22;24676;51.360;12.354;2022-10-17T13:18:03;26.80;55.30
38910;DHT22;24676;51.360;12.354;2022-10-17T13:21:00;26.60;55.30
38910;DHT22;24676;51.360;12.354;2022-10-17T13:23:45;26.60;56.00
38910;DHT22;24676;51.360;12.354;2022-10-17T13:26:32;26.60;55.50
38910;DHT22;24676;51.360;12.354;2022-10-17T13:29:16;26.60;55.90
38910;DHT22;24676;51.360;12.354;2022-10-17T13:32:03;26.50;56.40
38910;DHT22;24676;51.360;12.354;2022-10-17T13:35:03;26.50;56.40
38910;DHT22;24676;51.360;12.354;2022-10-17T13:37:48;26.40;56.70
38910;DHT22;24676;51.360;12.354;2022-10-17T13:40:37;26.30;56.90
38910;DHT22;24676;51.360;12.354;2022-10-17T13:43:22;26.30;57.00
38910;DHT22;24676;51.360;12.354;2022-10-17T13:46:07;26.30;57.20
38910;DHT22;24676;51.360;12.354;2022-10-17T13:49:07;26.20;57.60
38910;DHT22;24676;51.360;12.354;2022-10-17T13:51:51;26.20;58.00
38910;DHT22;24676;51.360;12.354;2022-10-17T13:57:22;26.20;57.90
38910;DHT22;24676;51.360;12.354;2022-10-17T14:00:16;26.20;58.00
38910;DHT22;24676;51.360;12.354;2022-10-17T14:03:01;26.10;58.10
38910;DHT22;24676;51.360;12.354;2022-10-17T14:06:02;26.00;58.30
38910;DHT22;24676;51.360;12.354;2022-10-17T14:08:49;26.00;58.50
38910;DHT22;24676;51.360;12.354;2022-10-17T14:11:35;25.90;58.40
38910;DHT22;24676;51.360;12.354;2022-10-17T14:14:21;25.90;59.10
38910;DHT22;24676;51.360;12.354;2022-10-17T14:17:12;25.90;58.80
38910;DHT22;24676;51.360;12.354;2022-10-17T14:20:01;25.80;59.10
38910;DHT22;24676;51.360;12.354;2022-10-17T14:22:46;25.80;58.20
38910;DHT22;24676;51.360;12.354;2022-10-17T14:25:31;25.90;58.20
38910;DHT22;24676;51.360;12.354;2022-10-17T14:28:18;25.90;57.50
38910;DHT22;24676;51.360;12.354;2022-10-17T14:31:16;25.90;55.70
38910;DHT22;24676;51.360;12.354;2022-10-17T14:34:02;25.90;55.60
38910;DHT22;24676;51.360;12.354;2022-10-17T14:36:47;25.80;55.70
38910;DHT22;24676;51.360;12.354;2022-10-17T14:39:32;25.80;55.70
38910;DHT22;24676;51.360;12.354;2022-10-17T14:42:17;25.80;55.60
38910;DHT22;24676;51.360;12.354;2022-10-17T14:45:04;25.70;55.70
38910;DHT22;24676;51.360;12.354;2022-10-17T14:47:49;25.70;55.80
38910;DHT22;24676;51.360;12.354;2022-10-17T14:50:33;25.60;55.80
38910;DHT22;24676;51.360;12.354;2022-10-17T14:53:20;25.60;55.60
38910;DHT22;24676;51.360;12.354;2022-10-17T14:56:17;25.60;55.70
38910;DHT22;24676;51.360;12.354;2022-10-17T14:59:02;25.50;56.00
38910;DHT22;24676;51.360;12.354;2022-10-17T15:01:48;25.40;56.10
38910;DHT22;24676;51.360;12.354;2022-10-17T15:04:33;25.30;56.60
38910;DHT22;24676;51.360;12.354;2022-10-17T15:07:17;25.20;57.00
38910;DHT22;24676;51.360;12.354;2022-10-17T15:10:01;25.10;56.70
38910;DHT22;24676;51.360;12.354;2022-10-17T15:12:46;24.90;57.20
38910;DHT22;24676;51.360;12.354;2022-10-17T15:15:30;24.80;57.70
38910;DHT22;24676;51.360;12.354;2022-10-17T15:18:14;24.70;57.90
38910;DHT22;24676;51.360;12.354;2022-10-17T15:20:58;24.60;58.80
38910;DHT22;24676;51.360;12.354;2022-10-17T15:23:42;24.50;58.90
38910;DHT22;24676;51.360;12.354;2022-10-17T15:26:29;24.40;59.20
38910;DHT22;24676;51.360;12.354;2022-10-17T15:29:13;24.30;59.50
38910;DHT22;24676;51.360;12.354;2022-10-17T15:31:58;24.10;60.00
38910;DHT22;24676;51.360;12.354;2022-10-17T15:34:42;24.00;60.60
38910;DHT22;24676;51.360;12.354;2022-10-17T15:37:27;24.00;61.30
38910;DHT22;24676;51.360;12.354;2022-10-17T15:40:20;23.80;61.90
38910;DHT22;24676;51.360;12.354;2022-10-17T15:43:04;23.70;62.70
38910;DHT22;24676;51.360;12.354;2022-10-17T15:45:49;23.50;63.10
38910;DHT22;24676;51.360;12.354;2022-10-17T15:48:33;23.40;63.50
38910;DHT22;24676;51.360;12.354;2022-10-17T15:51:17;23.20;64.20
38910;DHT22;24676;51.360;12.354;2022-10-17T15:54:01;23.10;64.80
38910;DHT22;24676;51.360;12.354;2022-10-17T15:56:48;23.00;65.30
38910;DHT22;24676;51.360;12.354;2022-10-17T15:59:35;22.90;66.50
38910;DHT22;24676;51.360;12.354;2022-10-17T16:02:20;22.80;67.20
38910;DHT22;24676;51.360;12.354;2022-10-17T16:05:08;22.60;67.80
38910;DHT22;24676;51.360;12.354;2022-10-17T16:07:55;22.50;68.50
38910;DHT22;24676;51.360;12.354;2022-10-17T16:10:40;22.30;69.60
38910;DHT22;24676;51.360;12.354;2022-10-17T16:13:24;22.20;71.10
38910;DHT22;24676;51.360;12.354;2022-10-17T16:16:10;22.00;73.40
38910;DHT22;24676;51.360;12.354;2022-10-17T16:18:54;21.80;76.50
38910;DHT22;24676;51.360;12.354;2022-10-17T16:21:39;21.70;78.30
38910;DHT22;24676;51.360;12.354;2022-10-17T16:24:23;21.60;80.40
38910;DHT22;24676;51.360;12.354;2022-10-17T16:27:07;21.40;83.80
38910;DHT22;24676;51.360;12.354;2022-10-17T16:29:52;21.30;89.50
38910;DHT22;24676;51.360;12.354;2022-10-17T16:32:36;21.10;94.50
38910;DHT22;24676;51.360;12.354;2022-10-17T16:35:23;20.90;98.70
38910;DHT22;24676;51.360;12.354;2022-10-17T16:38:07;20.70;99.90
38910;DHT22;24676;51.360;12.354;2022-10-17T16:40:51;20.50;99.90
38910;DHT22;24676;51.360;12.354;2022-10-17T16:43:36;20.30;99.90
38910;DHT22;24676;51.360;12.354;2022-10-17T16:46:21;20.20;99.90
38910;DHT22;24676;51.360;12.354;2022-10-17T16:49:05;20.00;99.90
38910;DHT22;24676;51.360;12.354;2022-10-17T16:51:49;19.80;99.90
38910;DHT22;24676;51.360;12.354;2022-10-17T16:54:33;19.70;99.90
38910;DHT22;24676;51.360;12.354;2022-10-17T16:57:18;19.60;99.90
38910;DHT22;24676;51.360;12.354;2022-10-17T17:00:03;19.50;99.90
38910;DHT22;24676;51.360;12.354;2022-10-17T17:02:47;19.40;99.90
38910;DHT22;24676;51.360;12.354;2022-10-17T17:05:31;19.30;99.90
38910;DHT22;24676;51.360;12.354;2022-10-17T17:08:16;19.10;99.90
38910;DHT22;24676;51.360;12.354;2022-10-17T17:11:00;19.00;99.90
38910;DHT22;24676;51.360;12.354;2022-10-17T17:13:44;18.90;99.90
38910;DHT22;24676;51.360;12.354;2022-10-17T17:16:30;18.70;99.90
38910;DHT22;24676;51.360;12.354;2022-10-17T17:19:14;18.60;99.90
38910;DHT22;24676;51.360;12.354;2022-10-17T17:21:59;18.50;99.90
38910;DHT22;24676;51.360;12.354;2022-10-17T17:24:44;18.40;99.90
38910;DHT22;24676;51.360;12.354;2022-10-17T17:27:28;18.30;99.90
38910;DHT22;24676;51.360;12.354;2022-10-17T17:30:12;18.20;99.90
38910;DHT22;24676;51.360;12.354;2022-10-17T17:32:56;18.10;99.90
38910;DHT22;24676;51.360;12.354;2022-10-17T17:35:42;18.00;99.90
38910;DHT22;24676;51.360;12.354;2022-10-17T17:38:30;18.00;99.90
38910;DHT22;24676;51.360;12.354;2022-10-17T17:41:16;17.90;99.90
38910;DHT22;24676;51.360;12.354;2022-10-17T17:44:00;17.90;99.90
38910;DHT22;24676;51.360;12.354;2022-10-17T17:46:44;17.90;99.90
38910;DHT22;24676;51.360;12.354;2022-10-17T17:49:28;17.80;99.90
38910;DHT22;24676;51.360;12.354;2022-10-17T17:52:13;17.70;99.90
38910;DHT22;24676;51.360;12.354;2022-10-17T17:54:57;17.70;99.90
38910;DHT22;24676;51.360;12.354;2022-10-17T17:57:41;17.60;99.90
38910;DHT22;24676;51.360;12.354;2022-10-17T18:00:25;17.60;99.90
38910;DHT22;24676;51.360;12.354;2022-10-17T18:03:10;17.60;99.90
38910;DHT22;24676;51.360;12.354;2022-10-17T18:05:54;17.50;99.90
38910;DHT22;24676;51.360;12.354;2022-10-17T18:08:39;17.50;99.90
38910;DHT22;24676;51.360;12.354;2022-10-17T18:11:23;17.50;99.90
38910;DHT22;24676;51.360;12.354;2022-10-17T18:14:09;17.40;99.90
38910;DHT22;24676;51.360;12.354;2022-10-17T18:16:53;17.40;99.90
38910;DHT22;24676;51.360;12.354;2022-10-17T18:19:38;17.30;99.90
38910;DHT22;24676;51.360;12.354;2022-10-17T18:22:22;17.20;99.90
38910;DHT22;24676;51.360;12.354;2022-10-17T18:25:06;17.10;99.90
38910;DHT22;24676;51.360;12.354;2022-10-17T18:27:50;17.10;99.90
38910;DHT22;24676;51.360;12.354;2022-10-17T18:30:35;17.00;99.90
38910;DHT22;24676;51.360;12.354;2022-10-17T18:33:20;17.00;99.90
38910;DHT22;24676;51.360;12.354;2022-10-17T18:36:05;16.90;99.90
38910;DHT22;24676;51.360;12.354;2022-10-17T18:38:49;16.90;99.90
38910;DHT22;24676;51.360;12.354;2022-10-17T18:41:33;16.90;99.90
38910;DHT22;24676;51.360;12.354;2022-10-17T18:44:17;16.90;99.90
38910;DHT22;24676;51.360;12.354;2022-10-17T18:47:01;16.80;99.90
38910;DHT22;24676;51.360;12.354;2022-10-17T18:49:45;16.80;99.90
38910;DHT22;24676;51.360;12.354;2022-10-17T18:52:31;16.70;99.90
38910;DHT22;24676;51.360;12.354;2022-10-17T18:55:15;16.60;99.90
38910;DHT22;24676;51.360;12.354;2022-10-17T18:58:02;16.60;99.90
38910;DHT22;24676;51.360;12.354;2022-10-17T19:00:47;16.50;99.90
38910;DHT22;24676;51.360;12.354;2022-10-17T19:03:31;16.50;99.90
38910;DHT22;24676;51.360;12.354;2022-10-17T19:06:20;16.50;99.90
38910;DHT22;24676;51.360;12.354;2022-10-17T19:09:05;16.40;99.90
38910;DHT22;24676;51.360;12.354;2022-10-17T19:11:50;16.40;99.90
38910;DHT22;24676;51.360;12.354;2022-10-17T19:14:34;16.40;99.90
38910;DHT22;24676;51.360;12.354;2022-10-17T19:17:21;16.30;99.90
38910;DHT22;24676;51.360;12.354;2022-10-17T19:20:05;16.40;99.90
38910;DHT22;24676;51.360;12.354;2022-10-17T19:22:50;16.40;99.90
38910;DHT22;24676;51.360;12.354;2022-10-17T19:25:34;16.40;99.90
38910;DHT22;24676;51.360;12.354;2022-10-17T19:28:18;16.40;99.90
38910;DHT22;24676;51.360;12.354;2022-10-17T19:31:03;16.40;99.90
38910;DHT22;24676;51.360;12.354;2022-10-17T19:33:47;16.40;99.90
38910;DHT22;24676;51.360;12.354;2022-10-17T19:36:36;16.40;99.90
38910;DHT22;24676;51.360;12.354;2022-10-17T19:39:20;16.40;99.90
38910;DHT22;24676;51.360;12.354;2022-10-17T19:42:06;16.40;99.90
38910;DHT22;24676;51.360;12.354;2022-10-17T19:44:50;16.30;99.90
38910;DHT22;24676;51.360;12.354;2022-10-17T19:47:34;16.20;99.90
38910;DHT22;24676;51.360;12.354;2022-10-17T19:50:18;16.10;99.90
38910;DHT22;24676;51.360;12.354;2022-10-17T19:53:03;16.00;99.90
38910;DHT22;24676;51.360;12.354;2022-10-17T19:55:47;16.00;99.90
38910;DHT22;24676;51.360;12.354;2022-10-17T19:58:32;15.90;99.90
38910;DHT22;24676;51.360;12.354;2022-10-17T20:01:17;15.90;99.90
38910;DHT22;24676;51.360;12.354;2022-10-17T20:04:02;15.90;99.90
38910;DHT22;24676;51.360;12.354;2022-10-17T20:06:46;15.90;99.90
38910;DHT22;24676;51.360;12.354;2022-10-17T20:09:30;15.90;99.90
38910;DHT22;24676;51.360;12.354;2022-10-17T20:12:14;15.90;99.90
38910;DHT22;24676;51.360;12.354;2022-10-17T20:14:59;15.90;99.90
38910;DHT22;24676;51.360;12.354;2022-10-17T20:17:43;15.90;99.90
38910;DHT22;24676;51.360;12.354;2022-10-17T20:20:27;15.90;99.90
38910;DHT22;24676;51.360;12.354;2022-10-17T20:23:11;15.80;99.90
38910;DHT22;24676;51.360;12.354;2022-10-17T20:25:59;15.80;99.90
38910;DHT22;24676;51.360;12.354;2022-10-17T20:28:44;15.80;99.90
38910;DHT22;24676;51.360;12.354;2022-10-17T20:31:28;15.80;99.90
38910;DHT22;24676;51.360;12.354;2022-10-17T20:34:13;15.80;99.90
38910;DHT22;24676;51.360;12.354;2022-10-17T20:36:57;15.70;99.90
38910;DHT22;24676;51.360;12.354;2022-10-17T20:39:41;15.70;99.90
38910;DHT22;24676;51.360;12.354;2022-10-17T20:42:26;15.60;99.90
38910;DHT22;24676;51.360;12.354;2022-10-17T20:45:10;15.60;99.90
38910;DHT22;24676;51.360;12.354;2022-10-17T20:47:55;15.60;99.90
38910;DHT22;24676;51.360;12.354;2022-10-17T20:50:39;15.60;99.90
38910;DHT22;24676;51.360;12.354;2022-10-17T20:53:24;15.60;99.90
38910;DHT22;24676;51.360;12.354;2022-10-17T20:56:10;15.60;99.90
38910;DHT22;24676;51.360;12.354;2022-10-17T20:59:03;15.60;99.90
